METAR Data
IDs: Format: Raw Decoded Include TAF

Data at: 0114 UTC 06 Dec 2019

METAR for:KHWY (Warrenton/Fauquier A, VA, US)
Text:KHWY 060055Z AUTO 00000KT 10SM CLR 00/M05 A3011 RMK AO2 T10031054
Temperature: -0.3°C ( 31°F)
Dewpoint: -5.4°C ( 22°F) [RH = 68%]
Pressure (altimeter):30.11 inches Hg (1019.7 mb)
Winds:calm
Visibility:10 or more sm (16+ km)
Ceiling:at least 12,000 feet AGL
Clouds:sky clear below 12,000 feet AGL
QC Flag:automated observation with no human augmentation